O Kean, Arkansas
Current Conditions -  °F | °C
As of 8:55 AM on Thursday 23 Oct 2014 (Local Time) from KARG Reporting Station
Clear Clear  
Wind Chill: 44°   Ceiling: Unl
Heat Index: 46°   Visibility: 8mi
Dew Point: 43°   Wind: 5mph
Humidity: 87%   Direction: 30°NNE
Pressure: 30.21"   Gusts: NA
Location:  36.1919°N, 90.8295°W
Report Text: KARG 231355Z AUTO 03004KT 8SM CLR 08/06 A3021 RMK AO1
Loading
Personal Weather Stations






























Interactive Weather Map
Tropical Storm Tracking
New forecast layout! Learn more

10-Day Weather Forecast

Advertisements
Track Severe Weather on mobile